Time;durP1;ratioP1;P1;durP2;ratioP2;P2;SDS_P1;SDS_P2;PMS_P1;PMS_P2;Temp;Humidity;BMP_temperature;BMP_pressure;BME280_temperature;BME280_humidity;BME280_pressure;Samples;Min_cycle;Max_cycle;Signal;HPM_P1;HPM_P2
2023/12/20 00:00:26;;;;;;;19.60;4.18;;;6.90;99.90;;;;;;5130800;27;20058;-77
2023/12/20 00:02:52;;;;;;;28.05;4.78;;;6.90;99.90;;;;;;5130720;27;20027;-78
2023/12/20 00:05:17;;;;;;;22.50;3.90;;;6.90;99.90;;;;;;5131477;27;20580;-78
2023/12/20 00:07:43;;;;;;;22.38;4.18;;;6.90;99.90;;;;;;5130831;27;20058;-78
2023/12/20 00:10:10;;;;;;;15.15;3.20;;;6.90;99.90;;;;;;5131263;27;20019;-78
2023/12/20 00:12:35;;;;;;;16.95;3.33;;;7.00;99.90;;;;;;5131036;27;20031;-78
2023/12/20 00:15:01;;;;;;;21.75;4.40;;;7.00;99.90;;;;;;5130776;27;20115;-78
2023/12/20 00:17:27;;;;;;;20.63;3.20;;;7.00;99.90;;;;;;5131692;27;20060;-78
2023/12/20 00:19:52;;;;;;;25.85;4.03;;;7.00;99.90;;;;;;5130601;27;20034;-77
2023/12/20 00:22:18;;;;;;;20.48;3.75;;;7.00;99.90;;;;;;5131011;27;20066;-78
2023/12/20 00:24:44;;;;;;;21.33;3.95;;;7.10;99.90;;;;;;5130774;27;20023;-78
2023/12/20 00:27:09;;;;;;;19.00;3.05;;;7.10;99.90;;;;;;5131523;27;20372;-77
2023/12/20 00:29:35;;;;;;;19.63;3.95;;;7.10;99.90;;;;;;5130578;27;20102;-78
2023/12/20 00:32:01;;;;;;;17.90;3.25;;;7.10;99.90;;;;;;5131444;27;20058;-78
2023/12/20 00:34:27;;;;;;;18.40;4.00;;;7.10;99.90;;;;;;5130874;27;20041;-77
2023/12/20 00:36:52;;;;;;;20.33;4.65;;;7.20;99.90;;;;;;5112300;28;20097;-77
2023/12/20 00:39:18;;;;;;;18.70;3.83;;;7.20;99.90;;;;;;5127851;28;20422;-78
2023/12/20 00:41:44;;;;;;;21.50;3.95;;;7.10;99.90;;;;;;5128938;28;20098;-77
2023/12/20 00:44:09;;;;;;;18.27;3.85;;;7.10;99.90;;;;;;5130122;28;20027;-77
2023/12/20 00:46:35;;;;;;;18.20;3.83;;;7.10;99.90;;;;;;5129389;28;20023;-77
2023/12/20 00:49:01;;;;;;;19.55;3.60;;;7.10;99.90;;;;;;5130240;28;20134;-77
2023/12/20 00:51:26;;;;;;;20.08;3.45;;;7.10;99.90;;;;;;5130310;28;20016;-77
2023/12/20 00:53:54;;;;;;;20.15;3.78;;;7.10;99.90;;;;;;5130176;28;20095;-76
2023/12/20 00:56:20;;;;;;;13.63;3.83;;;7.10;99.90;;;;;;5130557;27;20487;-77
2023/12/20 00:58:46;;;;;;;19.60;3.58;;;7.20;99.90;;;;;;5133873;27;20031;-78
2023/12/20 01:01:12;;;;;;;13.82;3.05;;;7.20;99.90;;;;;;5135464;27;20386;-77
2023/12/20 01:03:38;;;;;;;16.55;2.97;;;7.20;99.90;;;;;;5134831;27;20019;-78
2023/12/20 01:06:05;;;;;;;16.58;3.60;;;7.20;99.90;;;;;;5135402;27;20031;-77
2023/12/20 01:08:31;;;;;;;23.73;3.70;;;7.20;99.90;;;;;;5135139;27;20336;-77
2023/12/20 01:10:56;;;;;;;21.55;4.10;;;7.20;99.90;;;;;;5134958;27;20027;-77
2023/12/20 01:13:22;;;;;;;21.98;3.25;;;7.30;99.90;;;;;;5135188;27;20055;-77
2023/12/20 01:15:48;;;;;;;21.30;3.17;;;7.30;99.90;;;;;;5134208;27;20069;-77
2023/12/20 01:18:14;;;;;;;17.77;3.13;;;7.40;99.90;;;;;;5135701;27;20023;-78
2023/12/20 01:20:40;;;;;;;16.58;2.83;;;7.40;99.90;;;;;;5134842;27;20134;-78
2023/12/20 01:23:05;;;;;;;17.23;3.70;;;7.50;99.90;;;;;;5116458;27;20245;-78
2023/12/20 01:25:31;;;;;;;16.42;3.17;;;7.50;99.90;;;;;;5135031;27;20027;-78
2023/12/20 01:27:57;;;;;;;14.13;2.83;;;7.60;99.90;;;;;;5115881;27;20030;-78
2023/12/20 01:30:23;;;;;;;19.98;3.10;;;7.60;99.90;;;;;;5134870;27;20531;-78
2023/12/20 01:32:48;;;;;;;16.27;2.95;;;7.60;99.90;;;;;;5134677;27;20033;-78
2023/12/20 01:35:14;;;;;;;17.48;3.45;;;7.70;99.90;;;;;;5134561;27;20379;-78
2023/12/20 01:37:40;;;;;;;19.52;3.17;;;7.70;99.90;;;;;;5134563;27;20023;-78
2023/12/20 01:40:06;;;;;;;17.02;2.50;;;7.70;99.90;;;;;;5116438;27;20384;-77
2023/12/20 01:42:32;;;;;;;18.85;2.97;;;7.80;99.90;;;;;;5135061;27;20027;-76
2023/12/20 01:44:57;;;;;;;16.02;2.95;;;7.80;99.90;;;;;;5133850;27;20050;-77
2023/12/20 01:47:23;;;;;;;13.35;2.47;;;8.00;99.90;;;;;;5134757;27;20408;-76
2023/12/20 01:49:50;;;;;;;15.05;3.25;;;8.00;99.90;;;;;;5134433;27;20102;-77
2023/12/20 01:52:16;;;;;;;13.60;2.95;;;8.00;99.90;;;;;;5115820;27;20084;-76
2023/12/20 01:54:42;;;;;;;21.08;3.45;;;8.00;99.90;;;;;;5133925;27;20533;-77
2023/12/20 01:57:09;;;;;;;21.13;3.72;;;8.10;99.90;;;;;;5134302;27;20027;-77
2023/12/20 01:59:35;;;;;;;21.73;3.00;;;8.10;99.90;;;;;;5115559;27;20062;-76
2023/12/20 02:02:03;;;;;;;16.15;2.80;;;8.20;99.90;;;;;;5134152;27;20457;-77
2023/12/20 02:04:29;;;;;;;15.25;2.90;;;8.30;99.90;;;;;;5115991;27;20476;-77
2023/12/20 02:06:56;;;;;;;13.32;3.30;;;8.30;99.90;;;;;;5133782;27;20444;-77
2023/12/20 02:09:22;;;;;;;12.80;2.08;;;8.30;99.90;;;;;;5134423;27;20019;-77
2023/12/20 02:11:49;;;;;;;13.80;2.92;;;8.30;99.90;;;;;;5114829;27;20101;-77
2023/12/20 02:14:14;;;;;;;14.95;3.13;;;8.40;99.90;;;;;;5134545;27;20031;-77
2023/12/20 02:16:41;;;;;;;12.43;3.25;;;8.30;99.90;;;;;;5133819;27;20088;-78
2023/12/20 02:19:13;;;;;;;9.23;2.30;;;8.40;99.90;;;;;;5134218;27;20031;-78
2023/12/20 02:21:39;;;;;;;13.48;3.15;;;8.40;99.90;;;;;;5134667;27;20336;-77
2023/12/20 02:24:04;;;;;;;11.65;2.35;;;8.40;99.90;;;;;;5134256;27;20031;-77
2023/12/20 02:26:32;;;;;;;11.50;2.90;;;8.50;99.90;;;;;;5134790;27;20090;-77
2023/12/20 02:28:59;;;;;;;12.60;2.67;;;8.50;99.90;;;;;;5133942;27;20096;-78
2023/12/20 02:31:24;;;;;;;19.95;2.83;;;8.50;99.90;;;;;;5135161;27;20030;-77
2023/12/20 02:33:50;;;;;;;13.80;2.10;;;8.50;99.90;;;;;;5134798;27;20027;-78
2023/12/20 02:36:16;;;;;;;9.98;1.98;;;8.50;99.90;;;;;;5116353;27;20054;-78
2023/12/20 02:38:41;;;;;;;13.63;2.22;;;8.50;99.90;;;;;;5134284;27;20357;-79
2023/12/20 02:41:07;;;;;;;8.13;2.10;;;8.50;99.90;;;;;;5133970;27;20034;-78
2023/12/20 02:43:33;;;;;;;11.48;2.30;;;8.40;99.90;;;;;;5133660;27;20349;-76
2023/12/20 02:45:59;;;;;;;13.38;2.55;;;8.40;99.90;;;;;;5133685;27;20060;-76
2023/12/20 02:48:24;;;;;;;17.33;2.75;;;8.30;99.90;;;;;;5115333;27;20106;-77
2023/12/20 02:50:51;;;;;;;12.30;1.67;;;8.30;99.90;;;;;;5133593;27;20031;-76
2023/12/20 02:53:16;;;;;;;11.23;2.08;;;8.30;99.90;;;;;;5133584;27;20042;-76
2023/12/20 02:55:42;;;;;;;9.82;2.00;;;8.30;99.90;;;;;;5133178;27;20035;-77
2023/12/20 02:58:08;;;;;;;9.73;1.90;;;8.30;99.90;;;;;;5133291;27;20341;-77
2023/12/20 03:00:34;;;;;;;10.30;1.80;;;8.30;99.90;;;;;;5133203;27;20055;-76
2023/12/20 03:02:59;;;;;;;11.77;2.00;;;8.40;99.90;;;;;;5132728;27;20114;-77
2023/12/20 03:05:25;;;;;;;11.45;2.33;;;8.30;99.90;;;;;;5133258;27;20058;-76
2023/12/20 03:07:51;;;;;;;10.43;1.88;;;8.30;99.90;;;;;;5132688;27;20023;-77
2023/12/20 03:10:18;;;;;;;12.43;2.47;;;8.30;99.90;;;;;;5133282;27;20027;-76
2023/12/20 03:12:44;;;;;;;12.73;2.03;;;8.40;99.90;;;;;;5132573;27;20105;-77
2023/12/20 03:15:10;;;;;;;5.97;1.85;;;8.40;99.90;;;;;;5132793;27;20123;-77
2023/12/20 03:17:36;;;;;;;6.82;1.77;;;8.40;99.90;;;;;;5132810;27;20121;-77
2023/12/20 03:20:02;;;;;;;12.73;1.88;;;8.50;99.90;;;;;;5132317;27;20031;-77
2023/12/20 03:22:28;;;;;;;8.85;1.77;;;8.60;99.90;;;;;;5132840;27;20031;-78
2023/12/20 03:24:53;;;;;;;14.75;2.25;;;8.60;99.90;;;;;;5132282;27;20030;-78
2023/12/20 03:27:19;;;;;;;13.85;2.13;;;8.60;99.90;;;;;;5132795;27;20460;-78
2023/12/20 03:29:45;;;;;;;12.93;2.17;;;8.60;99.90;;;;;;5132292;27;20027;-78
2023/12/20 03:32:10;;;;;;;10.15;2.00;;;8.70;99.90;;;;;;5132833;27;20352;-78
2023/12/20 03:34:36;;;;;;;12.15;1.95;;;8.70;99.90;;;;;;5132633;27;20035;-78
2023/12/20 03:37:02;;;;;;;7.65;1.70;;;8.70;99.90;;;;;;5113682;27;20038;-78
2023/12/20 03:39:28;;;;;;;9.05;1.70;;;8.70;99.90;;;;;;5132553;27;20046;-78
2023/12/20 03:41:53;;;;;;;11.13;1.90;;;8.80;99.90;;;;;;5132011;27;20096;-77
2023/12/20 03:44:20;;;;;;;13.00;2.38;;;8.80;99.90;;;;;;5132647;27;20029;-76
2023/12/20 03:46:46;;;;;;;7.45;1.88;;;8.80;99.90;;;;;;5132272;27;20189;-77
2023/12/20 03:49:11;;;;;;;13.40;2.65;;;8.80;99.90;;;;;;5132269;27;20582;-78
2023/12/20 03:51:37;;;;;;;10.45;1.85;;;8.80;99.90;;;;;;5114277;27;20031;-76
2023/12/20 03:54:03;;;;;;;9.30;1.90;;;8.80;99.90;;;;;;5131757;27;20421;-76
2023/12/20 03:56:29;;;;;;;6.82;1.45;;;8.80;99.90;;;;;;5132636;27;20027;-76
2023/12/20 03:58:54;;;;;;;11.38;1.80;;;8.90;99.90;;;;;;5113083;27;20415;-77
2023/12/20 04:01:20;;;;;;;12.02;1.85;;;8.90;99.90;;;;;;5132286;27;20039;-76
2023/12/20 04:03:46;;;;;;;12.90;1.70;;;8.90;99.90;;;;;;5131981;27;20441;-77
2023/12/20 04:06:19;;;;;;;6.22;1.40;;;8.90;99.90;;;;;;5113356;28;20113;-77
2023/12/20 04:08:45;;;;;;;10.93;1.42;;;9.00;99.90;;;;;;5132099;27;20023;-76
2023/12/20 04:11:11;;;;;;;7.97;1.58;;;8.90;99.90;;;;;;5131284;27;20374;-76
2023/12/20 04:13:36;;;;;;;7.63;1.25;;;8.90;99.90;;;;;;5131917;27;20048;-76
2023/12/20 04:16:02;;;;;;;8.15;1.67;;;8.90;99.90;;;;;;5131272;27;20430;-77
2023/12/20 04:18:28;;;;;;;9.70;2.40;;;8.90;99.90;;;;;;5131675;27;20023;-76
2023/12/20 04:20:54;;;;;;;10.27;2.08;;;8.90;99.90;;;;;;5131417;27;20439;-77
2023/12/20 04:23:20;;;;;;;13.35;2.10;;;8.90;99.90;;;;;;5131850;27;20414;-78
2023/12/20 04:25:46;;;;;;;6.38;1.80;;;8.90;99.90;;;;;;5131818;27;20529;-78
2023/12/20 04:28:12;;;;;;;7.63;1.85;;;8.80;99.90;;;;;;5131243;27;20091;-78
2023/12/20 04:30:37;;;;;;;14.40;2.45;;;8.80;99.90;;;;;;5131348;27;20027;-78
2023/12/20 04:33:03;;;;;;;11.25;2.03;;;8.70;99.90;;;;;;5130807;27;20398;-77
2023/12/20 04:35:29;;;;;;;12.25;1.63;;;8.70;99.90;;;;;;5131593;27;20035;-78
2023/12/20 04:37:55;;;;;;;8.27;1.73;;;8.70;99.90;;;;;;5131083;28;20031;-78
2023/12/20 04:40:20;;;;;;;9.68;2.55;;;8.70;99.90;;;;;;5131628;28;20057;-77
2023/12/20 04:42:46;;;;;;;10.90;2.10;;;8.70;99.90;;;;;;5131420;28;20169;-77
2023/12/20 04:45:13;;;;;;;4.95;1.60;;;8.70;99.90;;;;;;5130700;28;20031;-77
2023/12/20 04:47:39;;;;;;;12.45;2.08;;;8.70;99.90;;;;;;5112948;28;20114;-77
2023/12/20 04:50:05;;;;;;;5.70;1.70;;;8.70;99.90;;;;;;5130445;28;20050;-78
2023/12/20 04:52:31;;;;;;;8.00;1.80;;;8.70;99.90;;;;;;5112940;28;20042;-77
2023/12/20 04:54:57;;;;;;;8.60;1.85;;;8.80;99.90;;;;;;5130734;28;20357;-76
2023/12/20 04:57:22;;;;;;;9.05;1.92;;;8.80;99.90;;;;;;5131447;28;20031;-77
2023/12/20 04:59:48;;;;;;;12.45;2.38;;;8.80;99.90;;;;;;5131220;28;20048;-77
2023/12/20 05:02:14;;;;;;;11.45;1.90;;;8.90;99.90;;;;;;5131411;28;20031;-77
2023/12/20 05:04:41;;;;;;;12.20;2.08;;;8.90;99.90;;;;;;5131398;28;20027;-77
2023/12/20 05:07:06;;;;;;;13.57;2.10;;;9.00;99.90;;;;;;5130760;28;20046;-77
2023/12/20 05:09:33;;;;;;;11.27;1.63;;;9.00;99.90;;;;;;5131325;28;20015;-77
2023/12/20 05:11:58;;;;;;;8.32;1.60;;;9.00;99.90;;;;;;5130877;28;20034;-75
2023/12/20 05:14:25;;;;;;;9.93;1.83;;;9.00;99.90;;;;;;5131656;28;20027;-77
2023/12/20 05:16:51;;;;;;;8.32;2.33;;;8.90;99.90;;;;;;5131812;28;20065;-77
2023/12/20 05:19:17;;;;;;;9.43;1.63;;;8.90;99.90;;;;;;5132488;28;20019;-77
2023/12/20 05:21:42;;;;;;;12.82;2.17;;;8.90;99.90;;;;;;5131547;28;20034;-78
2023/12/20 05:24:08;;;;;;;10.52;1.88;;;8.80;99.90;;;;;;5131017;28;20452;-78
2023/12/20 05:26:34;;;;;;;8.88;1.65;;;8.70;99.90;;;;;;5131948;28;20027;-78
2023/12/20 05:28:59;;;;;;;10.50;2.35;;;8.70;99.90;;;;;;5131075;28;20114;-77
2023/12/20 05:31:25;;;;;;;12.77;1.70;;;8.60;99.90;;;;;;5131542;28;20376;-79
2023/12/20 05:33:51;;;;;;;8.07;1.60;;;8.60;99.90;;;;;;5131623;28;20094;-79
2023/12/20 05:36:16;;;;;;;8.93;1.38;;;8.50;99.90;;;;;;5138669;28;20436;-79
2023/12/20 05:38:42;;;;;;;10.73;1.88;;;8.50;99.90;;;;;;5133839;28;20034;-80
2023/12/20 05:41:08;;;;;;;9.63;1.90;;;8.50;99.90;;;;;;5136653;27;20060;-80
2023/12/20 05:43:33;;;;;;;8.68;2.60;;;8.50;99.90;;;;;;5135141;27;20031;-80
2023/12/20 05:45:59;;;;;;;12.73;2.30;;;8.50;99.90;;;;;;5134574;27;20368;-80
2023/12/20 05:48:25;;;;;;;8.02;1.50;;;8.50;99.90;;;;;;5134731;27;20046;-80
2023/12/20 05:50:51;;;;;;;8.43;1.70;;;8.60;99.90;;;;;;5134909;27;20016;-79
2023/12/20 05:53:16;;;;;;;6.85;1.63;;;8.70;99.90;;;;;;5134689;27;20027;-79
2023/12/20 05:55:42;;;;;;;13.10;2.22;;;8.70;99.90;;;;;;5134747;27;20049;-80
2023/12/20 05:58:08;;;;;;;11.68;1.52;;;8.70;99.90;;;;;;5133986;27;20023;-80
2023/12/20 06:00:33;;;;;;;12.45;1.80;;;8.80;99.90;;;;;;5134376;27;20047;-79
2023/12/20 06:02:59;;;;;;;11.27;1.77;;;8.80;99.90;;;;;;5133822;27;20027;-79
2023/12/20 06:05:25;;;;;;;11.68;2.40;;;8.90;99.90;;;;;;5134381;27;20106;-79
2023/12/20 06:07:50;;;;;;;9.63;1.63;;;8.80;99.90;;;;;;5134344;27;20102;-79
2023/12/20 06:10:16;;;;;;;7.72;1.48;;;8.90;99.90;;;;;;5133399;27;20562;-79
2023/12/20 06:12:42;;;;;;;15.23;1.92;;;8.90;99.90;;;;;;5134717;27;20035;-80
2023/12/20 06:15:08;;;;;;;13.02;1.65;;;8.90;99.90;;;;;;5114938;27;20083;-79
2023/12/20 06:17:34;;;;;;;11.60;1.85;;;8.90;99.90;;;;;;5135085;27;20102;-79
2023/12/20 06:20:01;;;;;;;12.50;2.05;;;8.90;99.90;;;;;;5133626;27;20102;-79
2023/12/20 06:22:26;;;;;;;9.95;1.80;;;8.90;99.90;;;;;;5134040;27;20046;-80
2023/12/20 06:24:52;;;;;;;11.13;2.13;;;8.90;99.90;;;;;;5133967;27;20039;-79
2023/12/20 06:27:18;;;;;;;14.25;2.47;;;8.90;99.90;;;;;;5133609;27;20079;-78
2023/12/20 06:29:44;;;;;;;11.77;2.00;;;9.00;99.90;;;;;;5133768;27;20424;-79
2023/12/20 06:32:10;;;;;;;11.82;2.33;;;9.00;99.90;;;;;;5133441;27;20023;-79
2023/12/20 06:34:36;;;;;;;13.15;2.05;;;9.00;99.90;;;;;;5115511;27;20440;-79
2023/12/20 06:37:02;;;;;;;13.35;2.47;;;9.00;99.90;;;;;;5133243;27;20071;-79
2023/12/20 06:39:28;;;;;;;11.40;2.22;;;9.00;99.90;;;;;;5133848;27;20476;-79
2023/12/20 06:41:53;;;;;;;16.10;2.60;;;9.00;99.90;;;;;;5134037;27;20066;-79
2023/12/20 06:44:19;;;;;;;17.65;2.40;;;9.00;99.90;;;;;;5133421;27;20042;-78
2023/12/20 06:46:45;;;;;;;11.48;2.97;;;9.00;99.90;;;;;;5133582;27;20491;-79
2023/12/20 06:49:10;;;;;;;11.15;2.30;;;9.00;99.90;;;;;;5133250;27;20023;-79
2023/12/20 06:51:36;;;;;;;13.75;2.55;;;9.00;99.90;;;;;;5133658;27;20103;-79
2023/12/20 06:54:02;;;;;;;14.15;2.85;;;9.00;99.90;;;;;;5131812;27;20019;-79
2023/12/20 06:56:28;;;;;;;6.20;1.65;;;9.10;99.90;;;;;;5133372;27;20381;-79
2023/12/20 06:58:54;;;;;;;8.73;2.72;;;9.10;99.90;;;;;;5133561;27;20168;-79
2023/12/20 07:01:19;;;;;;;12.07;2.10;;;9.10;99.90;;;;;;5097419;27;20138;-79
2023/12/20 07:03:45;;;;;;;9.30;1.98;;;9.10;99.90;;;;;;5134032;27;20108;-78
2023/12/20 07:06:11;;;;;;;15.25;2.05;;;9.10;99.90;;;;;;5114482;27;20386;-79
2023/12/20 07:08:37;;;;;;;7.60;2.03;;;9.20;99.90;;;;;;5133435;27;20023;-79
2023/12/20 07:11:03;;;;;;;11.40;2.20;;;9.10;99.90;;;;;;5132307;27;20015;-79
2023/12/20 07:13:29;;;;;;;9.82;2.40;;;9.20;99.90;;;;;;5132870;27;20388;-79
2023/12/20 07:15:55;;;;;;;9.13;2.60;;;9.10;99.90;;;;;;5114698;27;20034;-79
2023/12/20 07:18:20;;;;;;;10.07;2.17;;;9.10;99.90;;;;;;5132840;27;20030;-80
2023/12/20 07:20:46;;;;;;;12.82;4.03;;;9.10;99.90;;;;;;5114541;27;20122;-77
2023/12/20 07:23:12;;;;;;;5.90;1.73;;;9.10;99.90;;;;;;5132597;27;20106;-79
2023/12/20 07:25:38;;;;;;;8.70;1.92;;;9.10;99.90;;;;;;5132960;27;20111;-78
2023/12/20 07:28:04;;;;;;;6.90;1.98;;;9.00;99.90;;;;;;5132196;27;20051;-78
2023/12/20 07:30:30;;;;;;;5.75;1.75;;;9.10;99.90;;;;;;5132704;27;20055;-78
2023/12/20 07:32:56;;;;;;;8.85;2.33;;;9.00;99.90;;;;;;5132488;27;20426;-77
2023/12/20 07:35:23;;;;;;;12.70;2.42;;;9.10;99.90;;;;;;5131804;27;20027;-76
2023/12/20 07:37:49;;;;;;;10.20;2.35;;;9.00;99.90;;;;;;5132229;27;20027;-77
2023/12/20 07:40:17;;;;;;;9.15;2.42;;;9.00;99.90;;;;;;5132096;27;20020;-77
2023/12/20 07:42:42;;;;;;;10.15;2.97;;;9.00;99.90;;;;;;5132406;27;20053;-77
2023/12/20 07:45:10;;;;;;;13.98;2.90;;;9.10;99.90;;;;;;5131587;27;20463;-76
2023/12/20 07:47:36;;;;;;;11.00;2.40;;;9.10;99.90;;;;;;5132234;27;20109;-77
2023/12/20 07:50:02;;;;;;;13.95;2.58;;;9.10;99.90;;;;;;5132147;27;20046;-78
2023/12/20 07:52:29;;;;;;;14.77;2.67;;;9.10;99.90;;;;;;5132254;27;20030;-76
2023/12/20 07:54:55;;;;;;;16.00;3.17;;;9.10;99.90;;;;;;5132199;27;20078;-77
2023/12/20 07:57:21;;;;;;;12.63;2.20;;;9.10;99.90;;;;;;5131384;27;20031;-76
2023/12/20 07:59:46;;;;;;;21.00;2.92;;;9.20;99.90;;;;;;5131821;27;20051;-77
2023/12/20 08:02:12;;;;;;;20.50;3.40;;;9.20;99.90;;;;;;5131267;27;20421;-78
2023/12/20 08:04:38;;;;;;;13.40;2.92;;;9.30;99.90;;;;;;5132225;27;20027;-80
2023/12/20 08:07:04;;;;;;;11.40;2.65;;;9.30;99.90;;;;;;5113145;27;20102;-80
2023/12/20 08:09:30;;;;;;;17.75;2.75;;;9.30;99.90;;;;;;5132116;27;20099;-80
2023/12/20 08:11:56;;;;;;;13.73;3.00;;;9.30;99.90;;;;;;5132455;27;20103;-81
2023/12/20 08:14:21;;;;;;;17.40;2.70;;;9.30;99.90;;;;;;5112708;27;20164;-81
2023/12/20 08:16:47;;;;;;;12.50;2.63;;;9.30;99.90;;;;;;5132294;27;20034;-80
2023/12/20 08:19:13;;;;;;;16.50;3.90;;;9.30;99.90;;;;;;5131835;27;20435;-81
2023/12/20 08:21:39;;;;;;;18.38;2.90;;;9.30;99.90;;;;;;5131867;27;20038;-81
2023/12/20 08:24:05;;;;;;;10.20;2.53;;;9.20;99.90;;;;;;5131440;27;20020;-79
2023/12/20 08:26:31;;;;;;;15.95;3.22;;;9.30;99.90;;;;;;5131788;27;20019;-79
2023/12/20 08:28:57;;;;;;;15.23;2.97;;;9.30;99.90;;;;;;5131382;27;20030;-78
2023/12/20 08:31:22;;;;;;;12.15;2.17;;;9.40;99.90;;;;;;5130865;27;20840;-79
2023/12/20 08:33:49;;;;;;;14.93;3.03;;;9.40;99.90;;;;;;5131629;27;20023;-79
2023/12/20 08:36:15;;;;;;;15.82;3.30;;;9.40;99.90;;;;;;5132929;27;20039;-77
2023/12/20 08:38:41;;;;;;;14.98;2.83;;;9.40;99.90;;;;;;5135240;27;20479;-79
2023/12/20 08:41:07;;;;;;;14.55;3.25;;;9.50;99.90;;;;;;5133723;28;20030;-79
2023/12/20 08:43:34;;;;;;;17.13;2.85;;;9.50;99.90;;;;;;5135002;28;20019;-80
2023/12/20 08:46:00;;;;;;;22.13;3.78;;;9.50;99.90;;;;;;5134281;28;20038;-79
2023/12/20 08:48:26;;;;;;;16.35;3.25;;;9.50;99.90;;;;;;5114858;28;20028;-80
2023/12/20 08:50:52;;;;;;;26.67;3.97;;;9.50;99.90;;;;;;5133081;28;20027;-79
2023/12/20 08:53:18;;;;;;;17.77;3.03;;;9.50;99.90;;;;;;5131972;28;20490;-78
2023/12/20 08:55:45;;;;;;;11.32;2.83;;;9.60;99.90;;;;;;5114274;28;20361;-77
2023/12/20 08:58:11;;;;;;;18.58;3.63;;;9.60;99.90;;;;;;5131731;28;20109;-78
2023/12/20 09:00:37;;;;;;;18.88;4.20;;;9.60;99.90;;;;;;5132429;28;20051;-78
2023/12/20 09:03:02;;;;;;;16.40;3.58;;;9.60;99.90;;;;;;5132613;28;20034;-79
2023/12/20 09:05:28;;;;;;;24.77;3.55;;;9.60;99.90;;;;;;5132490;28;20394;-78
2023/12/20 09:07:54;;;;;;;15.80;4.00;;;9.60;99.90;;;;;;5132313;28;20054;-78
2023/12/20 09:10:22;;;;;;;19.48;3.58;;;9.60;99.90;;;;;;5132214;28;20023;-78
2023/12/20 09:12:56;;;;;;;13.10;3.58;;;9.60;99.90;;;;;;5131971;28;20345;-79
2023/12/20 09:15:23;;;;;;;17.10;3.08;;;9.60;99.90;;;;;;5131626;27;20031;-79
2023/12/20 09:17:49;;;;;;;20.73;4.20;;;9.60;99.90;;;;;;5135274;27;20471;-80
2023/12/20 09:20:15;;;;;;;18.48;4.55;;;9.60;99.90;;;;;;5136124;27;20031;-79
2023/12/20 09:22:41;;;;;;;15.88;3.70;;;9.60;99.90;;;;;;5136390;27;20455;-79
2023/12/20 09:25:08;;;;;;;19.55;3.75;;;9.70;99.90;;;;;;5136389;27;20079;-80
2023/12/20 09:27:33;;;;;;;17.40;3.67;;;9.70;99.90;;;;;;5135893;27;20140;-78
2023/12/20 09:29:59;;;;;;;18.95;3.63;;;9.60;99.90;;;;;;5136793;27;20122;-80
2023/12/20 09:32:25;;;;;;;24.05;3.72;;;9.70;99.90;;;;;;5135614;27;20031;-79
2023/12/20 09:34:51;;;;;;;21.58;4.72;;;9.70;99.90;;;;;;5118089;27;20027;-80
2023/12/20 09:37:17;;;;;;;25.52;4.13;;;9.70;99.90;;;;;;5135634;27;20042;-80
2023/12/20 09:39:42;;;;;;;27.83;4.53;;;9.80;99.90;;;;;;5135430;27;20020;-80
2023/12/20 09:42:16;;;;;;;20.05;3.85;;;9.80;99.90;;;;;;5135497;27;20102;-80
2023/12/20 09:44:44;;;;;;;25.00;3.72;;;9.80;99.90;;;;;;5135991;27;20020;-80
2023/12/20 09:47:10;;;;;;;19.25;3.85;;;9.90;99.90;;;;;;5134840;27;20448;-80
2023/12/20 09:49:37;;;;;;;19.92;4.38;;;10.00;99.90;;;;;;5135173;27;20117;-80
2023/12/20 09:52:07;;;;;;;19.58;4.25;;;10.00;99.90;;;;;;5135619;27;20015;-78
2023/12/20 09:54:33;;;;;;;19.65;4.47;;;10.00;99.90;;;;;;5134395;27;20035;-80
2023/12/20 09:56:59;;;;;;;23.35;3.58;;;10.10;99.90;;;;;;5135022;27;20478;-78
2023/12/20 09:59:25;;;;;;;23.27;4.38;;;10.10;99.90;;;;;;5116015;27;20290;-79
2023/12/20 10:01:54;;;;;;;22.38;4.18;;;10.00;99.90;;;;;;5116916;27;20019;-79
2023/12/20 10:04:21;;;;;;;28.33;4.32;;;10.00;99.90;;;;;;5133553;27;20027;-80
2023/12/20 10:06:47;;;;;;;21.02;3.92;;;10.00;99.90;;;;;;5115613;27;20034;-80
2023/12/20 10:09:13;;;;;;;20.27;4.90;;;10.00;99.90;;;;;;5133997;27;20030;-80
2023/12/20 10:11:39;;;;;;;19.05;5.00;;;10.00;99.90;;;;;;5134229;27;20023;-79
2023/12/20 10:14:06;;;;;;;16.92;3.88;;;10.00;99.90;;;;;;5134341;27;20197;-79
2023/12/20 10:16:33;;;;;;;19.42;3.97;;;10.10;99.90;;;;;;5134064;27;20092;-79
2023/12/20 10:19:04;;;;;;;24.67;4.55;;;10.10;99.90;;;;;;5133709;27;20031;-80
2023/12/20 10:21:30;;;;;;;22.23;3.95;;;10.10;99.90;;;;;;5133203;27;20118;-81
2023/12/20 10:23:56;;;;;;;25.05;4.88;;;10.10;99.90;;;;;;5133411;27;20077;-78
2023/12/20 10:26:23;;;;;;;21.20;4.93;;;10.10;99.90;;;;;;5133504;27;20110;-79
2023/12/20 10:29:16;;;;;;;26.00;4.40;;;10.00;99.90;;;;;;5133658;27;20061;-79
2023/12/20 10:31:42;;;;;;;27.58;5.68;;;10.00;99.90;;;;;;5129386;27;20182;-79
2023/12/20 10:34:08;;;;;;;21.33;4.35;;;10.10;99.90;;;;;;5114770;27;20023;-79
2023/12/20 10:36:36;;;;;;;30.73;5.35;;;10.00;99.90;;;;;;5133188;27;20126;-79
2023/12/20 10:39:02;;;;;;;24.95;5.25;;;10.10;99.90;;;;;;5114713;27;20050;-80
2023/12/20 10:41:30;;;;;;;34.90;5.55;;;10.00;99.90;;;;;;5132600;27;20027;-81
2023/12/20 10:44:02;;;;;;;32.35;6.22;;;10.10;99.90;;;;;;5114543;27;20023;-80
2023/12/20 10:46:29;;;;;;;40.85;5.88;;;10.10;99.90;;;;;;5114288;27;20031;-81
2023/12/20 10:48:56;;;;;;;26.95;6.70;;;10.10;99.90;;;;;;5132951;27;20055;-81
2023/12/20 10:51:23;;;;;;;37.80;6.22;;;10.10;99.90;;;;;;5132974;27;20100;-80
2023/12/20 10:53:50;;;;;;;39.38;6.00;;;10.10;99.90;;;;;;5132464;27;20102;-80
2023/12/20 10:56:21;;;;;;;27.13;5.63;;;10.20;99.90;;;;;;5132293;27;20043;-79
2023/12/20 10:58:48;;;;;;;23.65;5.47;;;10.20;99.90;;;;;;5132638;27;20459;-78
2023/12/20 11:01:15;;;;;;;33.00;5.63;;;10.20;99.90;;;;;;5132332;27;20425;-79
2023/12/20 11:03:50;;;;;;;33.65;5.82;;;10.20;99.90;;;;;;5132548;27;20144;-78
2023/12/20 11:06:25;;;;;;;31.40;5.53;;;10.10;99.90;;;;;;5132276;27;20034;-78
2023/12/20 11:09:09;;;;;;;26.25;5.18;;;10.10;99.90;;;;;;5132243;27;20555;-77
2023/12/20 11:12:01;;;;;;;31.55;5.88;;;10.10;99.90;;;;;;5113329;27;20042;-79
2023/12/20 11:14:50;;;;;;;29.90;6.97;;;10.10;99.90;;;;;;5113259;27;20023;-79
2023/12/20 11:17:16;;;;;;;33.78;5.53;;;10.10;99.90;;;;;;5132035;27;20046;-79
2023/12/20 11:19:57;;;;;;;28.23;5.68;;;10.00;99.90;;;;;;5132086;27;20349;-79
2023/12/20 11:22:27;;;;;;;33.85;6.22;;;10.00;99.90;;;;;;5113160;27;20050;-79
2023/12/20 11:24:55;;;;;;;45.60;6.93;;;10.10;99.90;;;;;;5113643;27;20433;-78
2023/12/20 11:27:22;;;;;;;29.00;5.57;;;10.00;99.90;;;;;;5131721;27;20031;-80
2023/12/20 11:29:56;;;;;;;30.23;5.38;;;10.10;99.90;;;;;;5132307;27;20034;-79
2023/12/20 11:32:28;;;;;;;32.30;5.13;;;10.00;99.90;;;;;;5131616;27;20027;-79
2023/12/20 11:34:59;;;;;;;23.98;5.15;;;10.10;99.90;;;;;;5113871;27;20413;-79
2023/12/20 11:37:35;;;;;;;31.80;5.22;;;10.10;99.90;;;;;;5131776;27;20051;-79
2023/12/20 11:40:11;;;;;;;25.77;6.03;;;10.10;99.90;;;;;;5131822;27;20031;-80
2023/12/20 11:42:45;;;;;;;31.08;6.32;;;10.20;99.90;;;;;;5132184;27;20055;-79
2023/12/20 11:45:15;;;;;;;37.95;6.47;;;10.20;99.90;;;;;;5132590;27;20067;-79
2023/12/20 11:47:45;;;;;;;26.95;6.25;;;10.20;99.90;;;;;;5113853;27;20509;-79
2023/12/20 11:50:11;;;;;;;38.10;6.07;;;10.20;99.90;;;;;;5131548;27;20463;-79
2023/12/20 11:52:37;;;;;;;45.65;6.68;;;10.30;99.90;;;;;;5131705;27;20028;-79
2023/12/20 11:55:03;;;;;;;32.20;6.72;;;10.30;99.90;;;;;;5131750;27;20401;-79
2023/12/20 11:57:31;;;;;;;37.30;7.47;;;10.30;99.90;;;;;;5131543;27;20023;-80
2023/12/20 11:59:57;;;;;;;35.20;6.60;;;10.40;99.90;;;;;;5131751;27;20058;-79
2023/12/20 12:02:28;;;;;;;35.22;6.32;;;10.40;99.90;;;;;;5131210;27;20420;-79
2023/12/20 12:04:56;;;;;;;34.80;5.65;;;10.40;99.90;;;;;;5131527;27;20050;-79
2023/12/20 12:07:22;;;;;;;38.13;6.68;;;10.40;99.90;;;;;;5131110;27;20063;-79
2023/12/20 12:09:48;;;;;;;37.45;6.47;;;10.40;99.90;;;;;;5131636;27;20049;-79
2023/12/20 12:12:14;;;;;;;37.00;6.47;;;10.40;99.90;;;;;;5131664;27;20067;-79
2023/12/20 12:14:43;;;;;;;29.95;7.20;;;10.40;99.90;;;;;;5131179;27;20050;-79
2023/12/20 12:17:15;;;;;;;42.95;7.57;;;10.40;99.90;;;;;;5132408;27;20055;-79
2023/12/20 12:19:42;;;;;;;28.40;6.25;;;10.40;99.90;;;;;;5132866;27;20084;-79
2023/12/20 12:22:16;;;;;;;39.53;6.75;;;10.40;99.90;;;;;;5132337;27;20146;-79
2023/12/20 12:24:46;;;;;;;38.25;7.13;;;10.40;99.90;;;;;;5132544;27;20023;-79
2023/12/20 12:27:13;;;;;;;32.38;6.03;;;10.30;99.90;;;;;;5132996;27;20034;-79
2023/12/20 12:29:39;;;;;;;41.92;6.28;;;10.30;99.90;;;;;;5132192;27;20448;-80
2023/12/20 12:32:09;;;;;;;36.10;6.95;;;10.30;99.90;;;;;;5132784;27;20042;-81
2023/12/20 12:34:35;;;;;;;37.45;7.32;;;10.30;99.90;;;;;;5112960;27;20142;-80
2023/12/20 12:37:02;;;;;;;33.67;6.25;;;10.30;99.90;;;;;;5131421;27;20479;-80
2023/12/20 12:39:29;;;;;;;40.97;6.90;;;10.20;99.90;;;;;;5112291;28;20031;-79
2023/12/20 12:41:56;;;;;;;33.05;5.45;;;10.20;99.90;;;;;;5131783;28;20023;-79